sensor_id;sensor_type;location;lat;lon;timestamp;temperature;humidity
75824;DHT22;64457;51.976;9.834;2023-03-14T00:00:06;14.30;99.90
75824;DHT22;64457;51.976;9.834;2023-03-14T00:02:35;14.40;99.90
75824;DHT22;64457;51.976;9.834;2023-03-14T00:05:05;14.30;99.90
75824;DHT22;64457;51.976;9.834;2023-03-14T00:07:34;14.20;99.90
75824;DHT22;64457;51.976;9.834;2023-03-14T00:10:03;14.40;99.70
75824;DHT22;64457;51.976;9.834;2023-03-14T00:12:32;14.20;99.70
75824;DHT22;64457;51.976;9.834;2023-03-14T00:14:59;14.20;99.90
75824;DHT22;64457;51.976;9.834;2023-03-14T00:17:29;14.20;99.80
75824;DHT22;64457;51.976;9.834;2023-03-14T00:19:57;14.20;99.80
75824;DHT22;64457;51.976;9.834;2023-03-14T00:22:31;14.30;99.80
75824;DHT22;64457;51.976;9.834;2023-03-14T00:24:58;14.30;99.60
75824;DHT22;64457;51.976;9.834;2023-03-14T00:27:26;14.40;99.60
75824;DHT22;64457;51.976;9.834;2023-03-14T00:29:53;14.30;99.70
75824;DHT22;64457;51.976;9.834;2023-03-14T00:32:21;14.40;99.40
75824;DHT22;64457;51.976;9.834;2023-03-14T00:34:49;14.50;99.40
75824;DHT22;64457;51.976;9.834;2023-03-14T00:37:16;14.40;99.40
75824;DHT22;64457;51.976;9.834;2023-03-14T00:39:45;14.30;99.30
75824;DHT22;64457;51.976;9.834;2023-03-14T00:42:13;14.10;99.20
75824;DHT22;64457;51.976;9.834;2023-03-14T00:44:41;14.20;99.50
75824;DHT22;64457;51.976;9.834;2023-03-14T00:47:08;14.10;99.50
75824;DHT22;64457;51.976;9.834;2023-03-14T00:49:35;13.70;99.90
75824;DHT22;64457;51.976;9.834;2023-03-14T00:52:03;13.70;99.50
75824;DHT22;64457;51.976;9.834;2023-03-14T00:54:31;13.80;99.30
75824;DHT22;64457;51.976;9.834;2023-03-14T00:57:00;14.00;99.40
75824;DHT22;64457;51.976;9.834;2023-03-14T00:59:27;14.20;99.30
75824;DHT22;64457;51.976;9.834;2023-03-14T01:01:58;14.20;98.70
75824;DHT22;64457;51.976;9.834;2023-03-14T01:04:26;14.10;98.70
75824;DHT22;64457;51.976;9.834;2023-03-14T01:06:53;14.30;99.00
75824;DHT22;64457;51.976;9.834;2023-03-14T01:09:21;14.10;99.00
75824;DHT22;64457;51.976;9.834;2023-03-14T01:11:48;14.10;99.20
75824;DHT22;64457;51.976;9.834;2023-03-14T01:14:17;14.40;99.50
75824;DHT22;64457;51.976;9.834;2023-03-14T01:16:45;14.60;98.90
75824;DHT22;64457;51.976;9.834;2023-03-14T01:19:12;14.60;98.50
75824;DHT22;64457;51.976;9.834;2023-03-14T01:21:40;14.70;98.40
75824;DHT22;64457;51.976;9.834;2023-03-14T01:24:10;14.70;98.40
75824;DHT22;64457;51.976;9.834;2023-03-14T01:26:38;14.50;98.10
75824;DHT22;64457;51.976;9.834;2023-03-14T01:29:05;14.70;98.50
75824;DHT22;64457;51.976;9.834;2023-03-14T01:31:34;14.70;98.40
75824;DHT22;64457;51.976;9.834;2023-03-14T01:34:02;14.70;98.30
75824;DHT22;64457;51.976;9.834;2023-03-14T01:36:29;14.50;98.00
75824;DHT22;64457;51.976;9.834;2023-03-14T01:38:57;14.30;98.10
75824;DHT22;64457;51.976;9.834;2023-03-14T01:41:25;14.10;97.90
75824;DHT22;64457;51.976;9.834;2023-03-14T01:43:53;14.30;98.50
75824;DHT22;64457;51.976;9.834;2023-03-14T01:46:28;14.30;98.20
75824;DHT22;64457;51.976;9.834;2023-03-14T01:49:17;14.40;98.30
75824;DHT22;64457;51.976;9.834;2023-03-14T01:51:52;14.40;98.10
75824;DHT22;64457;51.976;9.834;2023-03-14T01:54:25;14.00;98.00
75824;DHT22;64457;51.976;9.834;2023-03-14T01:57:01;13.80;98.00
75824;DHT22;64457;51.976;9.834;2023-03-14T01:59:31;13.90;98.60
75824;DHT22;64457;51.976;9.834;2023-03-14T02:02:00;13.90;98.10
75824;DHT22;64457;51.976;9.834;2023-03-14T02:04:33;13.80;98.20
75824;DHT22;64457;51.976;9.834;2023-03-14T02:07:07;13.80;98.10
75824;DHT22;64457;51.976;9.834;2023-03-14T02:09:38;14.10;98.00
75824;DHT22;64457;51.976;9.834;2023-03-14T02:12:08;13.90;97.70
75824;DHT22;64457;51.976;9.834;2023-03-14T02:14:37;13.70;97.10
75824;DHT22;64457;51.976;9.834;2023-03-14T02:17:07;13.80;97.60
75824;DHT22;64457;51.976;9.834;2023-03-14T02:19:50;13.80;97.70
75824;DHT22;64457;51.976;9.834;2023-03-14T02:22:32;13.70;97.90
75824;DHT22;64457;51.976;9.834;2023-03-14T02:25:04;13.80;97.70
75824;DHT22;64457;51.976;9.834;2023-03-14T02:27:37;13.80;97.60
75824;DHT22;64457;51.976;9.834;2023-03-14T02:30:08;13.60;97.60
75824;DHT22;64457;51.976;9.834;2023-03-14T02:32:42;13.70;97.70
75824;DHT22;64457;51.976;9.834;2023-03-14T02:35:14;13.60;97.70
75824;DHT22;64457;51.976;9.834;2023-03-14T02:37:47;13.50;97.50
75824;DHT22;64457;51.976;9.834;2023-03-14T02:40:18;13.50;97.10
75824;DHT22;64457;51.976;9.834;2023-03-14T02:42:47;13.50;98.00
75824;DHT22;64457;51.976;9.834;2023-03-14T02:45:43;13.60;97.80
75824;DHT22;64457;51.976;9.834;2023-03-14T02:48:16;13.30;97.70
75824;DHT22;64457;51.976;9.834;2023-03-14T02:50:47;13.40;97.90
75824;DHT22;64457;51.976;9.834;2023-03-14T02:53:18;13.50;97.50
75824;DHT22;64457;51.976;9.834;2023-03-14T02:55:48;13.60;97.60
75824;DHT22;64457;51.976;9.834;2023-03-14T02:58:18;13.60;97.80
75824;DHT22;64457;51.976;9.834;2023-03-14T03:00:46;13.60;97.80
75824;DHT22;64457;51.976;9.834;2023-03-14T03:03:14;13.60;97.80
75824;DHT22;64457;51.976;9.834;2023-03-14T03:05:41;13.40;97.20
75824;DHT22;64457;51.976;9.834;2023-03-14T03:08:09;13.30;98.10
75824;DHT22;64457;51.976;9.834;2023-03-14T03:10:37;13.30;98.10
75824;DHT22;64457;51.976;9.834;2023-03-14T03:13:05;13.20;97.70
75824;DHT22;64457;51.976;9.834;2023-03-14T03:15:33;13.20;98.10
75824;DHT22;64457;51.976;9.834;2023-03-14T03:18:01;13.20;97.90
75824;DHT22;64457;51.976;9.834;2023-03-14T03:20:28;13.30;98.10
75824;DHT22;64457;51.976;9.834;2023-03-14T03:22:56;13.30;98.10
75824;DHT22;64457;51.976;9.834;2023-03-14T03:25:23;13.30;98.00
75824;DHT22;64457;51.976;9.834;2023-03-14T03:27:51;13.30;98.50
75824;DHT22;64457;51.976;9.834;2023-03-14T03:30:19;13.30;97.90
75824;DHT22;64457;51.976;9.834;2023-03-14T03:32:48;13.40;98.00
75824;DHT22;64457;51.976;9.834;2023-03-14T03:35:16;13.00;98.50
75824;DHT22;64457;51.976;9.834;2023-03-14T03:37:44;13.10;98.40
75824;DHT22;64457;51.976;9.834;2023-03-14T03:40:11;13.20;98.10
75824;DHT22;64457;51.976;9.834;2023-03-14T03:42:39;13.30;98.10
75824;DHT22;64457;51.976;9.834;2023-03-14T03:45:07;13.40;98.30
75824;DHT22;64457;51.976;9.834;2023-03-14T03:47:36;13.40;98.10
75824;DHT22;64457;51.976;9.834;2023-03-14T03:50:06;13.40;98.20
75824;DHT22;64457;51.976;9.834;2023-03-14T03:52:34;13.30;97.90
75824;DHT22;64457;51.976;9.834;2023-03-14T03:55:01;13.40;97.90
75824;DHT22;64457;51.976;9.834;2023-03-14T03:57:29;13.50;97.80
75824;DHT22;64457;51.976;9.834;2023-03-14T03:59:57;13.20;97.80
75824;DHT22;64457;51.976;9.834;2023-03-14T04:02:24;13.20;98.10
75824;DHT22;64457;51.976;9.834;2023-03-14T04:04:52;13.40;98.40
75824;DHT22;64457;51.976;9.834;2023-03-14T04:07:20;13.20;98.10
75824;DHT22;64457;51.976;9.834;2023-03-14T04:09:48;13.10;98.90
75824;DHT22;64457;51.976;9.834;2023-03-14T04:12:16;12.90;98.90
75824;DHT22;64457;51.976;9.834;2023-03-14T04:14:44;12.80;99.70
75824;DHT22;64457;51.976;9.834;2023-03-14T04:17:12;12.60;99.70
75824;DHT22;64457;51.976;9.834;2023-03-14T04:19:40;12.50;99.90
75824;DHT22;64457;51.976;9.834;2023-03-14T04:22:07;12.50;99.90
75824;DHT22;64457;51.976;9.834;2023-03-14T04:24:36;12.60;99.50
75824;DHT22;64457;51.976;9.834;2023-03-14T04:27:04;12.70;98.50
75824;DHT22;64457;51.976;9.834;2023-03-14T04:29:32;12.80;99.10
75824;DHT22;64457;51.976;9.834;2023-03-14T04:31:59;12.70;99.10
75824;DHT22;64457;51.976;9.834;2023-03-14T04:34:27;12.90;98.90
75824;DHT22;64457;51.976;9.834;2023-03-14T04:36:54;13.00;99.20
75824;DHT22;64457;51.976;9.834;2023-03-14T04:39:22;13.00;99.00
75824;DHT22;64457;51.976;9.834;2023-03-14T04:41:51;12.90;98.90
75824;DHT22;64457;51.976;9.834;2023-03-14T04:44:19;12.70;99.40
75824;DHT22;64457;51.976;9.834;2023-03-14T04:46:46;12.70;99.50
75824;DHT22;64457;51.976;9.834;2023-03-14T04:49:14;12.70;99.30
75824;DHT22;64457;51.976;9.834;2023-03-14T04:51:41;12.50;99.20
75824;DHT22;64457;51.976;9.834;2023-03-14T04:54:10;12.50;99.00
75824;DHT22;64457;51.976;9.834;2023-03-14T04:56:37;12.30;99.00
75824;DHT22;64457;51.976;9.834;2023-03-14T04:59:07;12.40;98.90
75824;DHT22;64457;51.976;9.834;2023-03-14T05:01:34;12.50;98.90
75824;DHT22;64457;51.976;9.834;2023-03-14T05:04:02;12.30;98.60
75824;DHT22;64457;51.976;9.834;2023-03-14T05:06:30;12.20;99.20
75824;DHT22;64457;51.976;9.834;2023-03-14T05:08:57;12.00;99.50
75824;DHT22;64457;51.976;9.834;2023-03-14T05:11:25;12.20;99.50
75824;DHT22;64457;51.976;9.834;2023-03-14T05:13:52;12.30;99.40
75824;DHT22;64457;51.976;9.834;2023-03-14T05:16:21;12.10;99.30
75824;DHT22;64457;51.976;9.834;2023-03-14T05:18:49;12.00;99.80
75824;DHT22;64457;51.976;9.834;2023-03-14T05:21:17;12.10;99.70
75824;DHT22;64457;51.976;9.834;2023-03-14T05:23:45;12.00;99.60
75824;DHT22;64457;51.976;9.834;2023-03-14T05:26:12;12.00;99.90
75824;DHT22;64457;51.976;9.834;2023-03-14T05:28:42;11.70;99.70
75824;DHT22;64457;51.976;9.834;2023-03-14T05:31:10;11.90;99.90
75824;DHT22;64457;51.976;9.834;2023-03-14T05:33:39;12.20;99.60
75824;DHT22;64457;51.976;9.834;2023-03-14T05:36:08;12.20;99.20
75824;DHT22;64457;51.976;9.834;2023-03-14T05:38:35;12.10;99.40
75824;DHT22;64457;51.976;9.834;2023-03-14T05:41:04;11.90;99.50
75824;DHT22;64457;51.976;9.834;2023-03-14T05:43:32;11.70;99.70
75824;DHT22;64457;51.976;9.834;2023-03-14T05:45:59;11.60;99.70
75824;DHT22;64457;51.976;9.834;2023-03-14T05:48:27;11.60;99.80
75824;DHT22;64457;51.976;9.834;2023-03-14T05:50:57;11.70;99.80
75824;DHT22;64457;51.976;9.834;2023-03-14T05:53:25;11.90;99.40
75824;DHT22;64457;51.976;9.834;2023-03-14T05:55:55;11.70;98.90
75824;DHT22;64457;51.976;9.834;2023-03-14T05:58:23;11.60;99.20
75824;DHT22;64457;51.976;9.834;2023-03-14T06:00:51;11.50;99.40
75824;DHT22;64457;51.976;9.834;2023-03-14T06:03:19;11.60;99.50
75824;DHT22;64457;51.976;9.834;2023-03-14T06:05:49;11.70;99.40
75824;DHT22;64457;51.976;9.834;2023-03-14T06:08:19;11.90;98.60
75824;DHT22;64457;51.976;9.834;2023-03-14T06:10:47;12.10;98.70
75824;DHT22;64457;51.976;9.834;2023-03-14T06:13:14;12.10;98.50
75824;DHT22;64457;51.976;9.834;2023-03-14T06:15:42;12.10;98.10
75824;DHT22;64457;51.976;9.834;2023-03-14T06:18:10;11.90;98.50
75824;DHT22;64457;51.976;9.834;2023-03-14T06:20:38;11.60;98.40
75824;DHT22;64457;51.976;9.834;2023-03-14T06:23:06;11.80;98.70
75824;DHT22;64457;51.976;9.834;2023-03-14T06:25:35;12.00;98.90
75824;DHT22;64457;51.976;9.834;2023-03-14T06:28:03;12.10;98.20
75824;DHT22;64457;51.976;9.834;2023-03-14T06:30:30;12.40;98.20
75824;DHT22;64457;51.976;9.834;2023-03-14T06:32:58;12.40;98.20
75824;DHT22;64457;51.976;9.834;2023-03-14T06:35:26;12.50;98.00
75824;DHT22;64457;51.976;9.834;2023-03-14T06:37:53;12.50;97.90
75824;DHT22;64457;51.976;9.834;2023-03-14T06:40:21;12.70;98.10
75824;DHT22;64457;51.976;9.834;2023-03-14T06:42:50;12.70;98.20
75824;DHT22;64457;51.976;9.834;2023-03-14T06:45:17;12.70;97.80
75824;DHT22;64457;51.976;9.834;2023-03-14T06:47:45;12.90;98.40
75824;DHT22;64457;51.976;9.834;2023-03-14T06:50:13;13.10;98.30
75824;DHT22;64457;51.976;9.834;2023-03-14T06:52:40;13.30;98.00
75824;DHT22;64457;51.976;9.834;2023-03-14T06:55:13;13.40;98.10
75824;DHT22;64457;51.976;9.834;2023-03-14T06:57:41;13.40;97.70
75824;DHT22;64457;51.976;9.834;2023-03-14T07:00:12;13.60;98.00
75824;DHT22;64457;51.976;9.834;2023-03-14T07:02:41;13.50;98.00
75824;DHT22;64457;51.976;9.834;2023-03-14T07:05:08;13.30;97.90
75824;DHT22;64457;51.976;9.834;2023-03-14T07:07:37;13.00;98.40
75824;DHT22;64457;51.976;9.834;2023-03-14T07:10:05;13.00;98.60
75824;DHT22;64457;51.976;9.834;2023-03-14T07:12:34;12.90;98.70
75824;DHT22;64457;51.976;9.834;2023-03-14T07:15:01;13.00;98.80
75824;DHT22;64457;51.976;9.834;2023-03-14T07:17:31;13.00;98.30
75824;DHT22;64457;51.976;9.834;2023-03-14T07:19:58;13.30;98.30
75824;DHT22;64457;51.976;9.834;2023-03-14T07:22:26;13.40;98.30
75824;DHT22;64457;51.976;9.834;2023-03-14T07:24:54;13.40;98.00
75824;DHT22;64457;51.976;9.834;2023-03-14T07:27:21;13.50;98.30
75824;DHT22;64457;51.976;9.834;2023-03-14T07:29:49;13.10;97.90
75824;DHT22;64457;51.976;9.834;2023-03-14T07:32:17;13.30;98.50
75824;DHT22;64457;51.976;9.834;2023-03-14T07:34:46;13.20;98.00
75824;DHT22;64457;51.976;9.834;2023-03-14T07:37:13;13.30;98.40
75824;DHT22;64457;51.976;9.834;2023-03-14T07:39:41;13.60;98.40
75824;DHT22;64457;51.976;9.834;2023-03-14T07:42:08;13.70;97.90
75824;DHT22;64457;51.976;9.834;2023-03-14T07:44:36;13.90;97.90
75824;DHT22;64457;51.976;9.834;2023-03-14T07:47:04;13.90;97.60
75824;DHT22;64457;51.976;9.834;2023-03-14T07:49:32;13.50;97.50
75824;DHT22;64457;51.976;9.834;2023-03-14T07:52:00;13.60;97.80
75824;DHT22;64457;51.976;9.834;2023-03-14T07:54:28;13.90;98.00
75824;DHT22;64457;51.976;9.834;2023-03-14T07:56:56;14.00;97.50
75824;DHT22;64457;51.976;9.834;2023-03-14T07:59:24;14.20;97.60
75824;DHT22;64457;51.976;9.834;2023-03-14T08:01:51;14.30;97.30
75824;DHT22;64457;51.976;9.834;2023-03-14T08:04:19;14.40;97.30
75824;DHT22;64457;51.976;9.834;2023-03-14T08:06:46;14.30;97.20
75824;DHT22;64457;51.976;9.834;2023-03-14T08:09:15;14.30;96.70
75824;DHT22;64457;51.976;9.834;2023-03-14T08:11:43;14.40;97.10
75824;DHT22;64457;51.976;9.834;2023-03-14T08:14:10;14.30;96.40
75824;DHT22;64457;51.976;9.834;2023-03-14T08:16:38;14.30;96.70
75824;DHT22;64457;51.976;9.834;2023-03-14T08:19:05;14.30;97.10
75824;DHT22;64457;51.976;9.834;2023-03-14T08:21:33;13.90;97.30
75824;DHT22;64457;51.976;9.834;2023-03-14T08:24:00;14.00;97.40
75824;DHT22;64457;51.976;9.834;2023-03-14T08:26:29;13.90;96.90
75824;DHT22;64457;51.976;9.834;2023-03-14T08:28:56;13.70;97.40
75824;DHT22;64457;51.976;9.834;2023-03-14T08:31:24;13.60;97.50
75824;DHT22;64457;51.976;9.834;2023-03-14T08:33:52;13.80;97.50
75824;DHT22;64457;51.976;9.834;2023-03-14T08:36:20;14.00;97.20
75824;DHT22;64457;51.976;9.834;2023-03-14T08:38:48;14.20;97.20
75824;DHT22;64457;51.976;9.834;2023-03-14T08:41:15;14.30;97.00
75824;DHT22;64457;51.976;9.834;2023-03-14T08:43:44;14.30;97.00
75824;DHT22;64457;51.976;9.834;2023-03-14T08:46:12;14.50;97.20
75824;DHT22;64457;51.976;9.834;2023-03-14T08:48:39;14.40;96.80
75824;DHT22;64457;51.976;9.834;2023-03-14T08:51:08;14.70;96.90
75824;DHT22;64457;51.976;9.834;2023-03-14T08:53:36;14.80;96.50
75824;DHT22;64457;51.976;9.834;2023-03-14T08:56:05;14.70;96.20
75824;DHT22;64457;51.976;9.834;2023-03-14T08:58:35;15.00;96.40
75824;DHT22;64457;51.976;9.834;2023-03-14T09:01:05;14.50;96.40
75824;DHT22;64457;51.976;9.834;2023-03-14T09:03:34;14.10;96.90
75824;DHT22;64457;51.976;9.834;2023-03-14T09:06:03;14.10;96.50
75824;DHT22;64457;51.976;9.834;2023-03-14T09:08:31;14.10;97.10
75824;DHT22;64457;51.976;9.834;2023-03-14T09:10:59;14.40;97.20
75824;DHT22;64457;51.976;9.834;2023-03-14T09:13:26;14.20;97.00
75824;DHT22;64457;51.976;9.834;2023-03-14T09:15:55;13.80;97.30
75824;DHT22;64457;51.976;9.834;2023-03-14T09:18:24;13.60;97.60
75824;DHT22;64457;51.976;9.834;2023-03-14T09:20:52;13.70;98.10
75824;DHT22;64457;51.976;9.834;2023-03-14T09:23:19;13.70;98.00
75824;DHT22;64457;51.976;9.834;2023-03-14T09:25:47;13.90;97.80
75824;DHT22;64457;51.976;9.834;2023-03-14T09:28:14;14.10;97.80
75824;DHT22;64457;51.976;9.834;2023-03-14T09:30:42;14.30;97.50
75824;DHT22;64457;51.976;9.834;2023-03-14T09:33:09;14.00;97.90
75824;DHT22;64457;51.976;9.834;2023-03-14T09:35:38;14.10;97.80
75824;DHT22;64457;51.976;9.834;2023-03-14T09:38:06;14.50;97.80
75824;DHT22;64457;51.976;9.834;2023-03-14T09:40:35;14.80;97.40
75824;DHT22;64457;51.976;9.834;2023-03-14T09:43:04;14.80;96.90
75824;DHT22;64457;51.976;9.834;2023-03-14T09:45:34;14.80;97.20
75824;DHT22;64457;51.976;9.834;2023-03-14T09:48:04;14.60;97.10
75824;DHT22;64457;51.976;9.834;2023-03-14T09:50:38;14.40;97.20
75824;DHT22;64457;51.976;9.834;2023-03-14T09:53:13;14.30;97.40
75824;DHT22;64457;51.976;9.834;2023-03-14T09:55:43;14.50;97.70
75824;DHT22;64457;51.976;9.834;2023-03-14T09:58:16;14.50;97.60
75824;DHT22;64457;51.976;9.834;2023-03-14T10:00:45;14.50;97.70
75824;DHT22;64457;51.976;9.834;2023-03-14T10:03:26;14.50;97.90
75824;DHT22;64457;51.976;9.834;2023-03-14T10:05:57;14.20;98.10
75824;DHT22;64457;51.976;9.834;2023-03-14T10:08:25;13.90;98.60
75824;DHT22;64457;51.976;9.834;2023-03-14T10:10:53;13.80;98.90
75824;DHT22;64457;51.976;9.834;2023-03-14T10:13:22;14.00;98.70
75824;DHT22;64457;51.976;9.834;2023-03-14T10:15:53;13.90;98.80
75824;DHT22;64457;51.976;9.834;2023-03-14T10:18:23;14.40;98.50
75824;DHT22;64457;51.976;9.834;2023-03-14T10:21:04;14.80;98.00
75824;DHT22;64457;51.976;9.834;2023-03-14T10:23:43;14.70;97.00
75824;DHT22;64457;51.976;9.834;2023-03-14T10:26:14;15.00;97.50
75824;DHT22;64457;51.976;9.834;2023-03-14T10:28:44;15.50;97.30
75824;DHT22;64457;51.976;9.834;2023-03-14T10:31:13;15.80;96.90
75824;DHT22;64457;51.976;9.834;2023-03-14T10:33:41;16.00;96.40
75824;DHT22;64457;51.976;9.834;2023-03-14T10:36:19;16.10;96.30
75824;DHT22;64457;51.976;9.834;2023-03-14T10:38:49;16.10;96.20
75824;DHT22;64457;51.976;9.834;2023-03-14T10:41:24;15.80;96.10
75824;DHT22;64457;51.976;9.834;2023-03-14T10:43:54;14.90;97.20
75824;DHT22;64457;51.976;9.834;2023-03-14T10:46:25;14.90;97.50
75824;DHT22;64457;51.976;9.834;2023-03-14T10:48:54;15.10;97.40
75824;DHT22;64457;51.976;9.834;2023-03-14T10:51:27;15.10;97.40
75824;DHT22;64457;51.976;9.834;2023-03-14T10:53:58;15.50;97.50
75824;DHT22;64457;51.976;9.834;2023-03-14T10:56:32;15.10;96.30
75824;DHT22;64457;51.976;9.834;2023-03-14T10:59:01;14.80;96.70
75824;DHT22;64457;51.976;9.834;2023-03-14T11:01:37;15.20;97.70
75824;DHT22;64457;51.976;9.834;2023-03-14T11:04:15;15.10;96.60
75824;DHT22;64457;51.976;9.834;2023-03-14T11:06:57;15.00;96.40
75824;DHT22;64457;51.976;9.834;2023-03-14T11:09:33;15.00;97.50
75824;DHT22;64457;51.976;9.834;2023-03-14T11:12:08;14.90;98.30
75824;DHT22;64457;51.976;9.834;2023-03-14T11:14:48;14.80;98.50
75824;DHT22;64457;51.976;9.834;2023-03-14T11:17:25;14.50;98.90
75824;DHT22;64457;51.976;9.834;2023-03-14T11:20:04;14.40;99.10
75824;DHT22;64457;51.976;9.834;2023-03-14T11:22:49;14.10;99.90
75824;DHT22;64457;51.976;9.834;2023-03-14T11:25:23;14.40;99.90
75824;DHT22;64457;51.976;9.834;2023-03-14T11:28:01;15.00;99.90
75824;DHT22;64457;51.976;9.834;2023-03-14T11:30:38;15.20;99.00
75824;DHT22;64457;51.976;9.834;2023-03-14T11:33:15;15.50;98.60
75824;DHT22;64457;51.976;9.834;2023-03-14T11:35:47;15.80;98.10
75824;DHT22;64457;51.976;9.834;2023-03-14T11:38:28;15.30;97.90
75824;DHT22;64457;51.976;9.834;2023-03-14T11:40:58;15.40;98.30
75824;DHT22;64457;51.976;9.834;2023-03-14T11:43:29;15.40;98.90
75824;DHT22;64457;51.976;9.834;2023-03-14T11:46:04;15.40;98.70
75824;DHT22;64457;51.976;9.834;2023-03-14T11:48:40;15.20;98.90
75824;DHT22;64457;51.976;9.834;2023-03-14T11:51:15;14.40;98.90
75824;DHT22;64457;51.976;9.834;2023-03-14T11:53:56;14.20;99.90
75824;DHT22;64457;51.976;9.834;2023-03-14T11:56:31;14.20;99.90
75824;DHT22;64457;51.976;9.834;2023-03-14T11:59:04;13.70;99.90
75824;DHT22;64457;51.976;9.834;2023-03-14T12:01:40;13.50;99.90
75824;DHT22;64457;51.976;9.834;2023-03-14T12:04:22;13.20;99.90
75824;DHT22;64457;51.976;9.834;2023-03-14T12:07:03;12.50;99.90
75824;DHT22;64457;51.976;9.834;2023-03-14T12:09:37;11.90;99.90
75824;DHT22;64457;51.976;9.834;2023-03-14T12:12:05;11.60;99.90
75824;DHT22;64457;51.976;9.834;2023-03-14T12:14:45;11.30;99.90
75824;DHT22;64457;51.976;9.834;2023-03-14T12:17:20;11.00;99.90
75824;DHT22;64457;51.976;9.834;2023-03-14T12:20:01;10.90;99.90
75824;DHT22;64457;51.976;9.834;2023-03-14T12:22:35;10.60;99.90
75824;DHT22;64457;51.976;9.834;2023-03-14T12:25:13;10.20;99.90
75824;DHT22;64457;51.976;9.834;2023-03-14T12:28:02;10.10;99.90
75824;DHT22;64457;51.976;9.834;2023-03-14T12:30:34;9.80;99.90
75824;DHT22;64457;51.976;9.834;2023-03-14T12:33:29;9.40;99.90
75824;DHT22;64457;51.976;9.834;2023-03-14T12:35:59;9.30;99.90
75824;DHT22;64457;51.976;9.834;2023-03-14T12:41:28;9.10;99.90
75824;DHT22;64457;51.976;9.834;2023-03-14T12:47:56;8.70;99.90
75824;DHT22;64457;51.976;9.834;2023-03-14T12:50:41;8.70;99.90
75824;DHT22;64457;51.976;9.834;2023-03-14T12:59:35;8.30;99.90
75824;DHT22;64457;51.976;9.834;2023-03-14T13:02:21;8.00;99.90
75824;DHT22;64457;51.976;9.834;2023-03-14T13:04:59;7.90;99.90
75824;DHT22;64457;51.976;9.834;2023-03-14T13:07:35;8.20;99.90
75824;DHT22;64457;51.976;9.834;2023-03-14T13:10:19;8.00;99.90
75824;DHT22;64457;51.976;9.834;2023-03-14T13:12:51;7.80;99.90
75824;DHT22;64457;51.976;9.834;2023-03-14T13:15:30;7.80;99.90
75824;DHT22;64457;51.976;9.834;2023-03-14T13:18:02;8.00;99.90
75824;DHT22;64457;51.976;9.834;2023-03-14T13:20:38;8.10;99.90
75824;DHT22;64457;51.976;9.834;2023-03-14T13:23:20;8.00;99.90
75824;DHT22;64457;51.976;9.834;2023-03-14T13:25:49;7.80;99.90
75824;DHT22;64457;51.976;9.834;2023-03-14T13:28:18;7.80;99.90
75824;DHT22;64457;51.976;9.834;2023-03-14T13:30:47;7.70;99.90
75824;DHT22;64457;51.976;9.834;2023-03-14T13:33:18;7.50;99.90
75824;DHT22;64457;51.976;9.834;2023-03-14T13:35:48;7.30;99.90
75824;DHT22;64457;51.976;9.834;2023-03-14T13:38:19;7.20;99.90
75824;DHT22;64457;51.976;9.834;2023-03-14T13:40:49;7.10;99.40
75824;DHT22;64457;51.976;9.834;2023-03-14T13:43:23;7.10;99.70
75824;DHT22;64457;51.976;9.834;2023-03-14T13:45:54;7.20;99.90
75824;DHT22;64457;51.976;9.834;2023-03-14T13:48:26;7.40;99.80
75824;DHT22;64457;51.976;9.834;2023-03-14T13:50:58;7.50;99.00
75824;DHT22;64457;51.976;9.834;2023-03-14T13:53:27;7.50;99.50
75824;DHT22;64457;51.976;9.834;2023-03-14T13:55:55;7.70;99.70
75824;DHT22;64457;51.976;9.834;2023-03-14T13:58:28;8.00;99.00
75824;DHT22;64457;51.976;9.834;2023-03-14T14:01:01;8.10;98.90
75824;DHT22;64457;51.976;9.834;2023-03-14T14:03:32;8.00;98.20
75824;DHT22;64457;51.976;9.834;2023-03-14T14:06:01;8.10;98.50
75824;DHT22;64457;51.976;9.834;2023-03-14T14:08:29;8.30;98.30
75824;DHT22;64457;51.976;9.834;2023-03-14T14:10:59;8.30;98.10
75824;DHT22;64457;51.976;9.834;2023-03-14T14:13:32;8.30;97.50
75824;DHT22;64457;51.976;9.834;2023-03-14T14:16:02;8.40;97.40
75824;DHT22;64457;51.976;9.834;2023-03-14T14:18:31;8.50;97.60
75824;DHT22;64457;51.976;9.834;2023-03-14T14:20:59;8.40;97.30
75824;DHT22;64457;51.976;9.834;2023-03-14T14:23:28;8.50;98.30
75824;DHT22;64457;51.976;9.834;2023-03-14T14:25:58;8.40;98.30
75824;DHT22;64457;51.976;9.834;2023-03-14T14:28:28;8.50;98.50
75824;DHT22;64457;51.976;9.834;2023-03-14T14:31:04;8.70;98.50
75824;DHT22;64457;51.976;9.834;2023-03-14T14:33:44;8.40;97.90
75824;DHT22;64457;51.976;9.834;2023-03-14T14:36:17;8.40;98.20
75824;DHT22;64457;51.976;9.834;2023-03-14T14:38:50;8.60;98.10
75824;DHT22;64457;51.976;9.834;2023-03-14T14:41:19;8.30;98.30
75824;DHT22;64457;51.976;9.834;2023-03-14T14:43:49;8.40;98.40
75824;DHT22;64457;51.976;9.834;2023-03-14T14:46:19;8.40;98.00
75824;DHT22;64457;51.976;9.834;2023-03-14T14:48:47;8.50;98.00
75824;DHT22;64457;51.976;9.834;2023-03-14T14:51:32;8.70;97.50
75824;DHT22;64457;51.976;9.834;2023-03-14T14:54:12;8.70;97.30
75824;DHT22;64457;51.976;9.834;2023-03-14T14:56:47;8.50;97.00
75824;DHT22;64457;51.976;9.834;2023-03-14T14:59:24;8.30;96.80
75824;DHT22;64457;51.976;9.834;2023-03-14T15:01:59;8.20;96.70
75824;DHT22;64457;51.976;9.834;2023-03-14T15:04:30;8.20;96.90
75824;DHT22;64457;51.976;9.834;2023-03-14T15:06:58;8.10;96.40
75824;DHT22;64457;51.976;9.834;2023-03-14T15:09:25;7.90;96.60
75824;DHT22;64457;51.976;9.834;2023-03-14T15:11:53;7.80;96.70
75824;DHT22;64457;51.976;9.834;2023-03-14T15:14:22;8.00;96.60
75824;DHT22;64457;51.976;9.834;2023-03-14T15:16:50;8.10;96.90
75824;DHT22;64457;51.976;9.834;2023-03-14T15:19:21;8.20;96.40
75824;DHT22;64457;51.976;9.834;2023-03-14T15:21:52;8.20;96.10
75824;DHT22;64457;51.976;9.834;2023-03-14T15:24:20;8.30;95.90
75824;DHT22;64457;51.976;9.834;2023-03-14T15:26:47;7.90;96.30
75824;DHT22;64457;51.976;9.834;2023-03-14T15:29:15;7.80;96.60
75824;DHT22;64457;51.976;9.834;2023-03-14T15:31:44;8.00;96.50
75824;DHT22;64457;51.976;9.834;2023-03-14T15:34:11;8.10;95.60
75824;DHT22;64457;51.976;9.834;2023-03-14T15:36:39;8.20;96.10
75824;DHT22;64457;51.976;9.834;2023-03-14T15:39:07;8.10;94.90
75824;DHT22;64457;51.976;9.834;2023-03-14T15:41:37;8.40;95.60
75824;DHT22;64457;51.976;9.834;2023-03-14T15:44:05;8.50;94.60
75824;DHT22;64457;51.976;9.834;2023-03-14T15:46:32;8.60;93.70
75824;DHT22;64457;51.976;9.834;2023-03-14T15:49:01;8.70;94.00
75824;DHT22;64457;51.976;9.834;2023-03-14T15:51:28;8.90;93.60
75824;DHT22;64457;51.976;9.834;2023-03-14T15:53:56;8.40;92.00
75824;DHT22;64457;51.976;9.834;2023-03-14T15:56:23;8.40;93.50
75824;DHT22;64457;51.976;9.834;2023-03-14T15:58:53;8.20;93.20
75824;DHT22;64457;51.976;9.834;2023-03-14T16:01:21;8.30;93.00
75824;DHT22;64457;51.976;9.834;2023-03-14T16:03:49;8.30;92.90
75824;DHT22;64457;51.976;9.834;2023-03-14T16:06:19;8.30;93.00